Time;durP1;ratioP1;P1;durP2;ratioP2;P2;SDS_P1;SDS_P2;PMS_P1;PMS_P2;Temp;Humidity;BMP_temperature;BMP_pressure;BME280_temperature;BME280_humidity;BME280_pressure;Samples;Min_cycle;Max_cycle;Signal;HPM_P1;HPM_P2
2024/01/14 00:01:00;;;;;;;;;;;19.50;44.70;;;;;;5096452;28;19943;-56
2024/01/14 00:03:27;;;;;;;;;;;19.60;44.80;;;;;;5078344;28;20011;-55
2024/01/14 00:05:58;;;;;;;;;;;19.50;44.70;;;;;;5094879;28;19927;-58
2024/01/14 00:08:24;;;;;;;;;;;19.50;44.70;;;;;;5095891;28;19920;-58
2024/01/14 00:10:51;;;;;;;;;;;19.50;44.70;;;;;;5094060;28;19920;-56
2024/01/14 00:13:22;;;;;;;;;;;19.50;44.60;;;;;;5077842;28;19987;-57
2024/01/14 00:15:48;;;;;;;;;;;19.50;44.60;;;;;;5095030;28;19920;-56
2024/01/14 00:18:15;;;;;;;;;;;19.50;44.60;;;;;;5094302;28;19942;-57
2024/01/14 00:20:42;;;;;;;;;;;19.50;44.60;;;;;;5092874;28;19920;-58
2024/01/14 00:23:10;;;;;;;;;;;19.50;44.60;;;;;;5095860;28;19927;-57
2024/01/14 00:25:37;;;;;;;;;;;19.50;44.60;;;;;;5095540;28;19954;-57
2024/01/14 00:28:04;;;;;;;;;;;19.50;44.50;;;;;;5095095;28;19920;-56
2024/01/14 00:30:31;;;;;;;;;;;19.50;44.50;;;;;;5095663;28;19967;-57
2024/01/14 00:32:58;;;;;;;;;;;19.50;44.50;;;;;;5094609;28;19920;-56
2024/01/14 00:35:26;;;;;;;;;;;19.50;44.50;;;;;;5094525;28;19959;-57
2024/01/14 00:37:54;;;;;;;;;;;19.50;44.50;;;;;;5094246;28;19965;-56
2024/01/14 00:40:22;;;;;;;;;;;19.40;44.40;;;;;;5093859;28;19927;-57
2024/01/14 00:42:50;;;;;;;;;;;19.50;44.50;;;;;;5095445;28;19927;-56
2024/01/14 00:45:16;;;;;;;;;;;19.40;44.40;;;;;;5077360;28;19924;-56
2024/01/14 00:47:43;;;;;;;;;;;19.40;44.40;;;;;;5095012;28;19919;-57
2024/01/14 00:50:10;;;;;;;;;;;19.50;44.50;;;;;;5093919;28;19969;-57
2024/01/14 00:52:37;;;;;;;;;;;19.40;44.40;;;;;;5093543;28;19924;-57
2024/01/14 00:55:04;;;;;;;;;;;19.40;44.40;;;;;;5077399;28;19927;-56
2024/01/14 00:57:32;;;;;;;;;;;19.40;44.30;;;;;;5094979;28;19919;-56
2024/01/14 00:59:58;;;;;;;;;;;19.40;44.30;;;;;;5077336;28;19927;-56
2024/01/14 01:02:25;;;;;;;;;;;19.40;44.30;;;;;;5077057;28;19924;-57
2024/01/14 01:04:52;;;;;;;;;;;19.40;44.30;;;;;;5077176;28;19928;-56
2024/01/14 01:07:19;;;;;;;;;;;19.40;44.30;;;;;;5077411;28;19920;-57
2024/01/14 01:09:46;;;;;;;;;;;19.40;44.30;;;;;;5077078;28;19969;-56
2024/01/14 01:12:12;;;;;;;;;;;19.40;44.30;;;;;;5076965;28;19920;-56
2024/01/14 01:14:40;;;;;;;;;;;19.40;44.20;;;;;;5077474;28;19924;-57
2024/01/14 01:17:07;;;;;;;;;;;19.40;44.30;;;;;;5094676;28;19924;-56
2024/01/14 01:19:34;;;;;;;;;;;19.40;44.20;;;;;;5077057;28;19950;-57
2024/01/14 01:22:01;;;;;;;;;;;19.40;44.20;;;;;;5060582;28;20015;-57
2024/01/14 01:24:27;;;;;;;;;;;19.40;44.20;;;;;;5076898;28;19924;-55
2024/01/14 01:26:54;;;;;;;;;;;19.40;44.20;;;;;;5077175;28;19959;-57
2024/01/14 01:29:21;;;;;;;;;;;19.30;44.10;;;;;;5077011;28;19987;-56
2024/01/14 01:31:49;;;;;;;;;;;19.40;44.20;;;;;;5077412;28;19931;-57
2024/01/14 01:34:16;;;;;;;;;;;19.40;44.20;;;;;;5093600;28;19920;-57
2024/01/14 01:36:43;;;;;;;;;;;19.30;44.10;;;;;;5094984;28;19982;-57
2024/01/14 01:39:10;;;;;;;;;;;19.40;44.20;;;;;;5075291;28;20003;-57
2024/01/14 01:41:36;;;;;;;;;;;19.30;44.10;;;;;;5093765;28;19969;-56
2024/01/14 01:44:04;;;;;;;;;;;19.40;44.20;;;;;;5093591;28;19920;-56
2024/01/14 01:46:31;;;;;;;;;;;19.30;44.10;;;;;;5093287;28;19921;-56
2024/01/14 01:48:59;;;;;;;;;;;19.30;44.10;;;;;;5093557;28;20281;-55
2024/01/14 01:51:26;;;;;;;;;;;19.30;44.10;;;;;;5092750;28;19989;-56
2024/01/14 01:53:53;;;;;;;;;;;19.40;44.20;;;;;;5098633;28;19969;-55
2024/01/14 01:56:19;;;;;;;;;;;19.30;44.10;;;;;;5097363;28;19986;-56
2024/01/14 01:58:46;;;;;;;;;;;19.30;44.10;;;;;;5097950;28;19920;-56
2024/01/14 02:01:15;;;;;;;;;;;19.40;44.20;;;;;;5097690;28;19927;-54
2024/01/14 02:03:42;;;;;;;;;;;19.30;44.10;;;;;;5098511;28;19927;-56
2024/01/14 02:06:10;;;;;;;;;;;19.30;44.10;;;;;;5097762;28;19924;-56
2024/01/14 02:08:37;;;;;;;;;;;19.40;44.20;;;;;;5080337;28;19920;-57
2024/01/14 02:11:04;;;;;;;;;;;19.30;44.10;;;;;;5098056;28;19920;-57
2024/01/14 02:13:30;;;;;;;;;;;19.30;44.10;;;;;;5097874;28;19921;-57
2024/01/14 02:15:57;;;;;;;;;;;19.30;44.10;;;;;;5096794;28;19920;-57
2024/01/14 02:18:24;;;;;;;;;;;19.30;44.10;;;;;;5097007;28;19920;-56
2024/01/14 02:20:50;;;;;;;;;;;19.30;44.10;;;;;;5097227;28;19965;-57
2024/01/14 02:23:20;;;;;;;;;;;19.30;44.10;;;;;;5097779;28;19920;-57
2024/01/14 02:25:49;;;;;;;;;;;19.30;44.10;;;;;;5096958;28;19920;-57
2024/01/14 02:28:15;;;;;;;;;;;19.30;44.10;;;;;;5096754;28;19920;-57
2024/01/14 02:30:43;;;;;;;;;;;19.30;44.10;;;;;;5097209;28;20009;-55
2024/01/14 02:33:10;;;;;;;;;;;19.30;44.10;;;;;;5097754;28;19970;-57
2024/01/14 02:35:39;;;;;;;;;;;19.30;44.10;;;;;;5096507;28;20304;-57
2024/01/14 02:38:06;;;;;;;;;;;19.30;44.10;;;;;;5097707;28;19926;-57
2024/01/14 02:40:34;;;;;;;;;;;19.30;44.10;;;;;;5096506;28;19920;-56
2024/01/14 02:43:02;;;;;;;;;;;19.30;44.10;;;;;;5097650;28;19967;-57
2024/01/14 02:45:30;;;;;;;;;;;19.30;44.40;;;;;;5096411;28;20404;-56
2024/01/14 02:47:57;;;;;;;;;;;19.30;44.10;;;;;;5096912;28;20011;-57
2024/01/14 02:50:23;;;;;;;;;;;19.30;44.10;;;;;;5097691;28;19954;-57
2024/01/14 02:52:50;;;;;;;;;;;19.30;44.00;;;;;;5096298;28;19920;-57
2024/01/14 02:55:18;;;;;;;;;;;19.30;44.00;;;;;;5097230;28;19942;-57
2024/01/14 02:57:45;;;;;;;;;;;19.30;44.00;;;;;;5096913;28;19920;-57
2024/01/14 03:00:15;;;;;;;;;;;19.30;44.00;;;;;;5097459;28;19923;-56
2024/01/14 03:02:42;;;;;;;;;;;19.30;44.00;;;;;;5096217;28;19921;-57
2024/01/14 03:05:08;;;;;;;;;;;19.30;43.90;;;;;;5094733;28;19920;-57
2024/01/14 03:07:35;;;;;;;;;;;19.30;43.90;;;;;;5095935;28;19920;-57
2024/01/14 03:10:02;;;;;;;;;;;19.30;43.90;;;;;;5095701;28;19924;-57
2024/01/14 03:12:29;;;;;;;;;;;19.30;44.50;;;;;;5097104;28;19920;-57
2024/01/14 03:14:55;;;;;;;;;;;19.30;43.90;;;;;;5096911;28;19920;-57
2024/01/14 03:17:23;;;;;;;;;;;19.30;43.90;;;;;;5095775;28;19942;-57
2024/01/14 03:19:50;;;;;;;;;;;19.30;43.90;;;;;;5096385;28;19927;-57
2024/01/14 03:22:17;;;;;;;;;;;19.20;43.80;;;;;;5095741;28;19978;-57
2024/01/14 03:24:44;;;;;;;;;;;19.30;43.90;;;;;;5096878;28;19946;-57
2024/01/14 03:27:11;;;;;;;;;;;19.20;43.80;;;;;;5113071;28;19921;-57
2024/01/14 03:29:37;;;;;;;;;;;19.20;43.80;;;;;;5095709;28;19920;-57
2024/01/14 03:32:04;;;;;;;;;;;19.30;43.80;;;;;;5095421;28;20266;-57
2024/01/14 03:34:33;;;;;;;;;;;19.20;43.80;;;;;;5095647;28;20308;-57
2024/01/14 03:36:59;;;;;;;;;;;19.30;43.80;;;;;;5096179;28;19927;-57
2024/01/14 03:39:26;;;;;;;;;;;19.30;43.80;;;;;;5096815;28;19920;-57
2024/01/14 03:41:53;;;;;;;;;;;19.20;43.80;;;;;;5095347;28;20055;-57
2024/01/14 03:44:20;;;;;;;;;;;19.20;43.80;;;;;;5095447;28;19924;-57
2024/01/14 03:46:46;;;;;;;;;;;19.20;43.80;;;;;;5096264;28;19969;-57
2024/01/14 03:49:13;;;;;;;;;;;19.20;43.70;;;;;;5095356;28;19927;-57
2024/01/14 03:51:41;;;;;;;;;;;19.20;43.80;;;;;;5095556;28;19924;-57
2024/01/14 03:54:08;;;;;;;;;;;19.20;43.80;;;;;;5095259;28;19924;-56
2024/01/14 03:56:35;;;;;;;;;;;19.20;43.80;;;;;;5096278;28;19927;-56
2024/01/14 03:59:01;;;;;;;;;;;19.20;43.80;;;;;;5094869;28;19942;-57
2024/01/14 04:01:28;;;;;;;;;;;19.20;43.80;;;;;;5095186;28;19942;-57
2024/01/14 04:03:55;;;;;;;;;;;19.20;43.80;;;;;;5095068;28;20296;-57
2024/01/14 04:06:23;;;;;;;;;;;19.20;43.70;;;;;;5094761;28;19920;-57
2024/01/14 04:08:51;;;;;;;;;;;19.20;43.70;;;;;;5095233;28;19982;-57
2024/01/14 04:11:18;;;;;;;;;;;19.20;43.70;;;;;;5094743;28;19920;-57
2024/01/14 04:13:44;;;;;;;;;;;19.20;43.90;;;;;;5095021;28;19969;-57
2024/01/14 04:16:11;;;;;;;;;;;19.20;43.70;;;;;;5094430;28;19924;-57
2024/01/14 04:18:38;;;;;;;;;;;19.20;43.70;;;;;;5095895;28;19924;-57
2024/01/14 04:21:05;;;;;;;;;;;19.20;43.70;;;;;;5095137;28;19973;-57
2024/01/14 04:23:31;;;;;;;;;;;19.20;43.70;;;;;;5095209;28;19969;-57
2024/01/14 04:25:59;;;;;;;;;;;19.20;43.60;;;;;;5094891;28;19920;-57
2024/01/14 04:28:26;;;;;;;;;;;19.20;43.60;;;;;;5095745;28;19927;-57
2024/01/14 04:30:53;;;;;;;;;;;19.20;43.60;;;;;;5094784;28;19920;-57
2024/01/14 04:33:20;;;;;;;;;;;19.20;43.60;;;;;;5094611;28;19924;-56
2024/01/14 04:35:46;;;;;;;;;;;19.20;43.60;;;;;;5095461;28;19974;-55
2024/01/14 04:38:13;;;;;;;;;;;19.20;43.60;;;;;;5094534;28;19920;-57
2024/01/14 04:40:40;;;;;;;;;;;19.20;43.60;;;;;;5095513;28;19959;-57
2024/01/14 04:43:08;;;;;;;;;;;19.20;43.60;;;;;;5094420;28;19970;-57
2024/01/14 04:45:35;;;;;;;;;;;19.20;43.60;;;;;;5094118;28;19920;-57
2024/01/14 04:48:02;;;;;;;;;;;19.20;43.60;;;;;;5094945;28;19931;-57
2024/01/14 04:50:29;;;;;;;;;;;19.20;43.50;;;;;;5094574;28;19920;-57
2024/01/14 04:52:55;;;;;;;;;;;19.20;43.60;;;;;;5094246;28;19969;-58
2024/01/14 04:55:22;;;;;;;;;;;19.20;43.50;;;;;;5094167;28;19920;-58
2024/01/14 04:57:49;;;;;;;;;;;19.20;43.50;;;;;;5094251;28;19920;-58
2024/01/14 05:00:17;;;;;;;;;;;19.20;43.50;;;;;;5094116;28;19959;-57
2024/01/14 05:02:44;;;;;;;;;;;19.20;43.50;;;;;;5095202;28;19920;-56
2024/01/14 05:05:11;;;;;;;;;;;19.20;43.50;;;;;;5094058;28;19920;-57
2024/01/14 05:07:38;;;;;;;;;;;19.20;43.50;;;;;;5094181;28;19920;-57
2024/01/14 05:10:05;;;;;;;;;;;19.20;43.50;;;;;;5095006;28;19920;-58
2024/01/14 05:12:32;;;;;;;;;;;19.20;43.50;;;;;;5093780;28;19920;-56
2024/01/14 05:14:58;;;;;;;;;;;19.20;43.50;;;;;;5094343;28;19927;-57
2024/01/14 05:17:27;;;;;;;;;;;19.20;43.40;;;;;;5094716;28;19921;-57
2024/01/14 05:19:53;;;;;;;;;;;19.20;43.40;;;;;;5093824;28;19973;-57
2024/01/14 05:22:20;;;;;;;;;;;19.20;43.40;;;;;;5093921;28;19927;-56
2024/01/14 05:24:47;;;;;;;;;;;19.20;43.50;;;;;;5093728;28;19927;-57
2024/01/14 05:27:13;;;;;;;;;;;19.20;43.40;;;;;;5095926;28;19923;-61
2024/01/14 05:29:40;;;;;;;;;;;19.20;43.40;;;;;;5115543;28;19920;-57
2024/01/14 05:32:08;;;;;;;;;;;19.10;43.30;;;;;;5098991;28;19920;-55
2024/01/14 05:34:36;;;;;;;;;;;19.20;43.40;;;;;;5098707;28;19957;-56
2024/01/14 05:37:03;;;;;;;;;;;19.20;43.40;;;;;;5098670;28;19931;-56
2024/01/14 05:39:30;;;;;;;;;;;19.20;44.00;;;;;;5098314;28;20274;-57
2024/01/14 05:41:57;;;;;;;;;;;19.10;43.30;;;;;;5097803;28;19919;-57
2024/01/14 05:44:23;;;;;;;;;;;19.10;43.30;;;;;;5097763;28;19942;-57
2024/01/14 05:46:50;;;;;;;;;;;19.20;43.40;;;;;;5098205;28;19919;-57
2024/01/14 05:49:17;;;;;;;;;;;19.20;43.40;;;;;;5098110;28;19950;-58
2024/01/14 05:51:45;;;;;;;;;;;19.20;43.40;;;;;;5098595;28;19920;-57
2024/01/14 05:54:12;;;;;;;;;;;19.20;43.40;;;;;;5097778;28;19931;-57
2024/01/14 05:56:38;;;;;;;;;;;19.10;43.30;;;;;;5097465;28;19924;-57
2024/01/14 05:59:05;;;;;;;;;;;19.20;43.40;;;;;;5097476;28;19958;-57
2024/01/14 06:01:32;;;;;;;;;;;19.20;43.40;;;;;;5097539;28;19965;-57
2024/01/14 06:03:58;;;;;;;;;;;19.20;44.00;;;;;;5097261;28;19924;-57
2024/01/14 06:06:25;;;;;;;;;;;19.20;43.40;;;;;;5097150;28;19971;-57
2024/01/14 06:08:53;;;;;;;;;;;19.10;43.30;;;;;;5098571;28;19973;-56
2024/01/14 06:11:20;;;;;;;;;;;19.10;43.30;;;;;;5098275;28;19920;-57
2024/01/14 06:13:47;;;;;;;;;;;19.20;43.40;;;;;;5098105;28;19920;-56
2024/01/14 06:16:14;;;;;;;;;;;19.20;43.40;;;;;;5097653;28;19924;-57
2024/01/14 06:18:40;;;;;;;;;;;19.20;43.40;;;;;;5097203;28;19920;-56
2024/01/14 06:21:08;;;;;;;;;;;19.10;43.30;;;;;;5096923;28;19920;-55
2024/01/14 06:23:35;;;;;;;;;;;19.10;43.30;;;;;;5097047;28;19920;-54
2024/01/14 06:26:03;;;;;;;;;;;19.20;43.40;;;;;;5096761;28;19920;-56
2024/01/14 06:28:29;;;;;;;;;;;19.10;43.30;;;;;;5097257;28;19924;-55
2024/01/14 06:30:56;;;;;;;;;;;19.20;43.40;;;;;;5097490;28;19927;-55
2024/01/14 06:33:23;;;;;;;;;;;19.10;43.90;;;;;;5097499;28;19920;-55
2024/01/14 06:35:50;;;;;;;;;;;19.10;43.30;;;;;;5097654;28;19966;-56
2024/01/14 06:38:16;;;;;;;;;;;19.10;43.30;;;;;;5097651;28;19920;-55
2024/01/14 06:40:43;;;;;;;;;;;19.20;43.40;;;;;;5096787;28;19985;-55
2024/01/14 06:43:11;;;;;;;;;;;19.20;43.40;;;;;;5097483;28;19927;-56
2024/01/14 06:45:38;;;;;;;;;;;19.10;43.30;;;;;;5096457;28;19920;-56
2024/01/14 06:48:05;;;;;;;;;;;19.10;43.30;;;;;;5096603;28;19973;-56
2024/01/14 06:50:32;;;;;;;;;;;19.10;43.20;;;;;;5096771;28;19924;-55
2024/01/14 06:52:59;;;;;;;;;;;19.10;43.20;;;;;;5096342;28;19998;-56
2024/01/14 06:55:24;;;;;;;;;;;19.10;43.20;;;;;;5096416;28;19920;-56
2024/01/14 06:57:51;;;;;;;;;;;19.10;43.20;;;;;;5097615;28;20362;-57
2024/01/14 07:00:19;;;;;;;;;;;19.10;43.20;;;;;;5097397;28;19920;-57
2024/01/14 07:02:46;;;;;;;;;;;19.10;43.20;;;;;;5097763;28;19981;-56
2024/01/14 07:05:13;;;;;;;;;;;19.10;43.20;;;;;;5113289;28;19927;-57
2024/01/14 07:07:40;;;;;;;;;;;19.10;43.20;;;;;;5095972;28;19927;-57
2024/01/14 07:10:07;;;;;;;;;;;19.10;43.20;;;;;;5096276;28;19920;-57
2024/01/14 07:12:35;;;;;;;;;;;19.10;43.20;;;;;;5097171;28;19927;-57
2024/01/14 07:15:01;;;;;;;;;;;19.10;43.10;;;;;;5096782;28;19965;-56
2024/01/14 07:17:29;;;;;;;;;;;19.10;43.10;;;;;;5096488;28;19979;-56
2024/01/14 07:19:56;;;;;;;;;;;19.10;43.10;;;;;;5096764;28;19920;-56
2024/01/14 07:22:23;;;;;;;;;;;19.10;43.10;;;;;;5096804;28;19978;-56
2024/01/14 07:24:50;;;;;;;;;;;19.10;43.10;;;;;;5096571;28;19920;-56
2024/01/14 07:27:16;;;;;;;;;;;19.10;43.10;;;;;;5095775;28;19920;-56
2024/01/14 07:29:43;;;;;;;;;;;19.10;43.10;;;;;;5096896;28;19927;-55
2024/01/14 07:32:10;;;;;;;;;;;19.10;43.10;;;;;;5096388;28;19942;-55
2024/01/14 07:34:38;;;;;;;;;;;19.10;43.10;;;;;;5095568;28;19924;-55
2024/01/14 07:37:05;;;;;;;;;;;19.10;43.10;;;;;;5096125;28;19920;-56
2024/01/14 07:39:32;;;;;;;;;;;19.10;43.00;;;;;;5095570;28;19921;-55
2024/01/14 07:41:59;;;;;;;;;;;19.10;43.00;;;;;;5097060;28;19973;-56
2024/01/14 07:44:25;;;;;;;;;;;19.10;43.10;;;;;;5096663;28;19927;-55
2024/01/14 07:46:54;;;;;;;;;;;19.10;43.10;;;;;;5095389;28;19965;-55
2024/01/14 07:49:20;;;;;;;;;;;19.10;43.10;;;;;;5095646;28;19926;-56
2024/01/14 07:51:48;;;;;;;;;;;19.10;43.10;;;;;;5095874;28;19967;-56
2024/01/14 07:54:15;;;;;;;;;;;19.10;43.10;;;;;;5096545;28;19920;-55
2024/01/14 07:56:42;;;;;;;;;;;19.10;43.10;;;;;;5095804;28;20001;-56
2024/01/14 07:59:09;;;;;;;;;;;19.10;43.10;;;;;;5095260;28;20269;-56
2024/01/14 08:01:36;;;;;;;;;;;19.10;43.20;;;;;;5078131;28;19920;-56
2024/01/14 08:04:03;;;;;;;;;;;19.10;43.20;;;;;;5095411;28;20026;-56
2024/01/14 08:06:29;;;;;;;;;;;19.10;43.20;;;;;;5079489;28;19928;-56
2024/01/14 08:08:57;;;;;;;;;;;19.10;43.20;;;;;;5076604;28;19920;-56
2024/01/14 08:11:24;;;;;;;;;;;19.10;43.20;;;;;;5078102;28;19920;-56
2024/01/14 08:13:51;;;;;;;;;;;19.10;43.20;;;;;;5078390;28;19927;-56
2024/01/14 08:16:18;;;;;;;;;;;19.10;43.20;;;;;;5061900;28;19974;-56
2024/01/14 08:18:45;;;;;;;;;;;19.10;43.20;;;;;;5078667;28;19965;-56
2024/01/14 08:21:12;;;;;;;;;;;19.10;43.20;;;;;;5075814;28;19921;-56
2024/01/14 08:23:38;;;;;;;;;;;19.10;43.20;;;;;;5074697;28;19939;-57
2024/01/14 08:26:07;;;;;;;;;;;19.10;43.20;;;;;;5088286;28;20871;-56
2024/01/14 08:28:35;;;;;;;;;;;19.10;43.20;;;;;;5092647;28;19974;-56
2024/01/14 08:31:02;;;;;;;;;;;19.10;43.20;;;;;;5084553;28;19938;-56
2024/01/14 08:33:29;;;;;;;;;;;19.10;43.30;;;;;;5084328;28;19920;-57
2024/01/14 08:35:56;;;;;;;;;;;19.10;43.30;;;;;;5077963;28;19974;-56
2024/01/14 08:38:23;;;;;;;;;;;19.10;43.30;;;;;;5081346;28;19931;-55
2024/01/14 08:40:51;;;;;;;;;;;19.10;43.30;;;;;;5079585;28;19927;-57
2024/01/14 08:43:19;;;;;;;;;;;19.10;43.30;;;;;;5090860;28;19924;-57
2024/01/14 08:45:45;;;;;;;;;;;19.10;43.30;;;;;;5080820;28;19920;-56
2024/01/14 08:48:13;;;;;;;;;;;19.10;43.30;;;;;;5081424;28;19928;-55
2024/01/14 08:50:39;;;;;;;;;;;19.10;43.30;;;;;;5077725;28;19942;-53
2024/01/14 08:53:06;;;;;;;;;;;19.10;43.30;;;;;;5076722;28;19924;-57
2024/01/14 08:55:33;;;;;;;;;;;19.10;43.30;;;;;;5078140;28;19924;-57
2024/01/14 08:58:00;;;;;;;;;;;19.10;43.30;;;;;;5090532;28;19924;-57
2024/01/14 09:00:28;;;;;;;;;;;19.10;43.30;;;;;;5083725;28;19924;-58
2024/01/14 09:02:55;;;;;;;;;;;19.10;43.30;;;;;;5091402;28;19928;-57
2024/01/14 09:05:22;;;;;;;;;;;19.10;43.30;;;;;;5080843;28;19920;-57
2024/01/14 09:07:49;;;;;;;;;;;19.10;43.30;;;;;;5090403;28;19927;-56
2024/01/14 09:10:16;;;;;;;;;;;19.10;43.30;;;;;;5073864;28;20197;-57
2024/01/14 09:12:42;;;;;;;;;;;19.10;43.30;;;;;;5082867;28;19920;-55
2024/01/14 09:15:09;;;;;;;;;;;19.10;43.30;;;;;;5081835;28;19919;-57
2024/01/14 09:17:38;;;;;;;;;;;19.10;43.30;;;;;;5077954;28;20385;-57
2024/01/14 09:20:05;;;;;;;;;;;19.10;43.30;;;;;;5086011;28;19932;-56
2024/01/14 09:22:32;;;;;;;;;;;19.10;43.30;;;;;;5086073;28;19920;-55
2024/01/14 09:24:59;;;;;;;;;;;19.10;43.30;;;;;;5088256;28;19942;-57
2024/01/14 09:27:29;;;;;;;;;;;19.10;43.30;;;;;;5078090;28;19920;-56
2024/01/14 09:29:56;;;;;;;;;;;19.10;43.20;;;;;;5090913;28;19949;-57
2024/01/14 09:32:23;;;;;;;;;;;19.10;43.20;;;;;;5087180;28;19981;-57
2024/01/14 09:34:51;;;;;;;;;;;19.10;43.20;;;;;;5077135;28;19942;-57
2024/01/14 09:37:18;;;;;;;;;;;19.10;43.30;;;;;;5083415;28;19942;-57
2024/01/14 09:39:44;;;;;;;;;;;19.10;43.20;;;;;;5078802;28;20027;-58
2024/01/14 09:42:14;;;;;;;;;;;19.10;43.20;;;;;;5090073;28;20265;-57
2024/01/14 09:44:41;;;;;;;;;;;19.10;43.20;;;;;;5079493;28;20013;-57
2024/01/14 09:47:09;;;;;;;;;;;19.10;43.30;;;;;;5081517;28;19920;-56
2024/01/14 09:49:36;;;;;;;;;;;19.10;43.30;;;;;;5091204;28;19924;-55
2024/01/14 09:52:04;;;;;;;;;;;19.10;43.30;;;;;;5088292;28;19973;-55
2024/01/14 09:54:32;;;;;;;;;;;19.10;43.30;;;;;;5094717;28;19966;-56
2024/01/14 09:56:59;;;;;;;;;;;19.10;43.30;;;;;;5094576;28;19927;-55
2024/01/14 09:59:26;;;;;;;;;;;19.10;43.20;;;;;;5094572;28;19963;-56
2024/01/14 10:01:53;;;;;;;;;;;19.10;43.20;;;;;;5091327;28;19951;-57
2024/01/14 10:04:20;;;;;;;;;;;19.10;43.30;;;;;;5065062;28;19920;-55
2024/01/14 10:06:47;;;;;;;;;;;19.10;43.20;;;;;;5088029;28;20079;-57
2024/01/14 10:09:16;;;;;;;;;;;19.10;43.20;;;;;;5090683;28;20209;-56
2024/01/14 10:11:43;;;;;;;;;;;19.10;43.20;;;;;;5077051;28;19920;-56
2024/01/14 10:14:11;;;;;;;;;;;19.10;43.20;;;;;;5083620;28;19920;-57
2024/01/14 10:16:39;;;;;;;;;;;19.10;43.20;;;;;;5092912;28;19920;-55
2024/01/14 10:19:05;;;;;;;;;;;19.10;43.20;;;;;;5087680;28;19924;-56
2024/01/14 10:21:32;;;;;;;;;;;19.20;43.30;;;;;;5080888;28;19985;-55
2024/01/14 10:24:00;;;;;;;;;;;19.20;43.30;;;;;;5082979;28;19943;-56
2024/01/14 10:26:28;;;;;;;;;;;19.20;43.30;;;;;;5080105;28;19920;-55
2024/01/14 10:28:55;;;;;;;;;;;19.20;43.30;;;;;;5082452;28;19920;-57
2024/01/14 10:31:22;;;;;;;;;;;19.10;43.30;;;;;;5092311;28;19920;-56
2024/01/14 10:33:50;;;;;;;;;;;19.10;43.20;;;;;;5082135;28;19920;-57
2024/01/14 10:36:16;;;;;;;;;;;19.10;43.20;;;;;;5079227;28;20034;-57
2024/01/14 10:38:43;;;;;;;;;;;19.20;43.30;;;;;;5091037;28;19920;-57
2024/01/14 10:41:10;;;;;;;;;;;19.20;43.30;;;;;;5081257;28;19928;-56
2024/01/14 10:43:40;;;;;;;;;;;19.20;43.30;;;;;;5085810;28;19920;-56
2024/01/14 10:46:07;;;;;;;;;;;19.20;43.30;;;;;;5094761;28;19920;-57
2024/01/14 10:48:34;;;;;;;;;;;19.20;43.30;;;;;;5066288;28;19943;-56
2024/01/14 10:51:01;;;;;;;;;;;19.20;42.90;;;;;;5073805;28;19959;-56
2024/01/14 10:53:30;;;;;;;;;;;19.20;42.60;;;;;;5070725;28;19928;-57
2024/01/14 10:55:59;;;;;;;;;;;19.20;42.60;;;;;;5065447;28;19933;-57
2024/01/14 10:58:26;;;;;;;;;;;19.10;42.50;;;;;;5087263;28;19924;-56
2024/01/14 11:00:56;;;;;;;;;;;19.10;42.60;;;;;;5067486;28;20018;-57
2024/01/14 11:03:23;;;;;;;;;;;19.10;42.60;;;;;;5072043;28;19924;-56
2024/01/14 11:05:50;;;;;;;;;;;19.10;42.60;;;;;;5074948;28;19931;-55
2024/01/14 11:08:18;;;;;;;;;;;19.10;42.60;;;;;;5095528;28;19927;-59
2024/01/14 11:10:45;;;;;;;;;;;19.10;43.30;;;;;;5087284;28;19927;-57
2024/01/14 11:13:15;;;;;;;;;;;19.10;42.70;;;;;;5072741;28;19927;-56
2024/01/14 11:15:44;;;;;;;;;;;19.10;42.70;;;;;;5087313;28;19948;-57
2024/01/14 11:18:12;;;;;;;;;;;19.10;42.70;;;;;;5063387;28;19957;-57
2024/01/14 11:20:39;;;;;;;;;;;19.10;42.80;;;;;;5070784;28;20001;-56
2024/01/14 11:23:06;;;;;;;;;;;19.10;42.80;;;;;;5085292;28;19930;-57
2024/01/14 11:25:33;;;;;;;;;;;19.10;42.80;;;;;;5082458;28;20026;-57
2024/01/14 11:28:00;;;;;;;;;;;19.10;42.80;;;;;;5088071;28;20222;-57
2024/01/14 11:30:43;;;;;;;;;;;19.10;42.90;;;;;;5075562;28;19947;-57
2024/01/14 11:33:28;;;;;;;;;;;19.10;42.90;;;;;;5066335;28;19943;-57
2024/01/14 11:35:57;;;;;;;;;;;19.10;42.90;;;;;;5071491;28;19986;-57
2024/01/14 11:38:31;;;;;;;;;;;19.10;42.90;;;;;;5070951;28;19965;-56
2024/01/14 11:40:58;;;;;;;;;;;19.10;42.90;;;;;;5085583;28;20262;-58
2024/01/14 11:43:25;;;;;;;;;;;19.10;42.90;;;;;;5078922;28;19925;-56
2024/01/14 11:45:54;;;;;;;;;;;19.20;43.10;;;;;;5095327;28;20847;-57
2024/01/14 11:48:21;;;;;;;;;;;19.20;43.10;;;;;;5082830;28;19920;-55
2024/01/14 11:50:50;;;;;;;;;;;19.10;43.00;;;;;;5076517;28;19924;-56
2024/01/14 11:53:18;;;;;;;;;;;19.10;43.00;;;;;;5065848;28;19939;-57
2024/01/14 11:55:46;;;;;;;;;;;19.10;43.00;;;;;;5069991;28;19931;-57
2024/01/14 11:58:14;;;;;;;;;;;19.20;43.10;;;;;;5075000;28;20268;-57
2024/01/14 12:00:41;;;;;;;;;;;19.20;43.20;;;;;;5076726;28;19924;-58
2024/01/14 12:03:08;;;;;;;;;;;19.20;43.20;;;;;;5072451;28;19965;-56
2024/01/14 12:05:35;;;;;;;;;;;19.20;43.20;;;;;;5091005;28;19920;-57
2024/01/14 12:08:02;;;;;;;;;;;19.20;43.20;;;;;;5080619;28;19920;-57
2024/01/14 12:10:31;;;;;;;;;;;19.20;43.20;;;;;;5068720;28;19920;-57
2024/01/14 12:12:59;;;;;;;;;;;19.20;43.30;;;;;;5077978;28;19920;-57
2024/01/14 12:15:26;;;;;;;;;;;19.20;43.30;;;;;;5090173;28;19973;-57
2024/01/14 12:17:56;;;;;;;;;;;19.20;43.30;;;;;;5098712;28;19920;-56
2024/01/14 12:20:23;;;;;;;;;;;19.20;43.40;;;;;;5071222;28;19920;-57
2024/01/14 12:22:55;;;;;;;;;;;19.20;43.40;;;;;;5091110;28;19920;-57
2024/01/14 12:25:22;;;;;;;;;;;19.20;43.40;;;;;;5085129;28;19940;-57
2024/01/14 12:27:50;;;;;;;;;;;19.20;43.50;;;;;;5081813;28;20001;-56
2024/01/14 12:30:26;;;;;;;;;;;19.20;43.50;;;;;;5090272;28;20360;-57
2024/01/14 12:32:53;;;;;;;;;;;19.20;43.50;;;;;;5078807;28;20372;-57
2024/01/14 12:35:20;;;;;;;;;;;19.20;43.60;;;;;;5081577;28;19927;-56
2024/01/14 12:37:46;;;;;;;;;;;19.20;43.60;;;;;;5067069;28;19974;-57
2024/01/14 12:40:13;;;;;;;;;;;19.20;43.70;;;;;;5080843;28;19920;-57
2024/01/14 12:42:40;;;;;;;;;;;19.20;43.70;;;;;;5102874;28;19920;-57
2024/01/14 12:45:08;;;;;;;;;;;19.20;43.70;;;;;;5080651;28;19945;-55
2024/01/14 12:47:35;;;;;;;;;;;19.20;43.70;;;;;;5097175;28;19920;-57
2024/01/14 12:50:02;;;;;;;;;;;19.20;43.80;;;;;;5074241;28;19929;-57
2024/01/14 12:52:29;;;;;;;;;;;19.30;43.90;;;;;;5080703;28;19923;-57
2024/01/14 12:54:55;;;;;;;;;;;19.20;43.80;;;;;;5071892;28;19920;-55
2024/01/14 12:57:22;;;;;;;;;;;19.30;44.00;;;;;;5091261;28;19924;-56
2024/01/14 12:59:49;;;;;;;;;;;19.30;44.00;;;;;;5075452;28;19960;-57
2024/01/14 13:02:17;;;;;;;;;;;19.30;44.00;;;;;;5068945;28;19927;-57
2024/01/14 13:04:44;;;;;;;;;;;19.20;44.00;;;;;;5087779;28;20296;-57
2024/01/14 13:07:11;;;;;;;;;;;19.30;44.10;;;;;;5082955;28;19966;-57
2024/01/14 13:09:38;;;;;;;;;;;19.30;44.10;;;;;;5089570;28;19924;-57
2024/01/14 13:12:05;;;;;;;;;;;19.30;44.10;;;;;;5070942;28;19959;-58
2024/01/14 13:14:31;;;;;;;;;;;19.30;44.10;;;;;;5067566;28;19925;-57
2024/01/14 13:16:58;;;;;;;;;;;19.20;44.10;;;;;;5088533;28;19978;-56
2024/01/14 13:19:26;;;;;;;;;;;19.30;44.20;;;;;;5090071;28;19920;-57
2024/01/14 13:21:53;;;;;;;;;;;19.30;44.20;;;;;;5069900;28;20348;-55
2024/01/14 13:24:20;;;;;;;;;;;19.30;44.20;;;;;;5071253;28;20037;-57
2024/01/14 13:26:47;;;;;;;;;;;19.30;44.20;;;;;;5072898;28;19959;-57
2024/01/14 13:29:14;;;;;;;;;;;19.30;44.20;;;;;;5089348;28;19939;-57
2024/01/14 13:31:41;;;;;;;;;;;19.30;44.30;;;;;;5071886;28;20017;-57
2024/01/14 13:34:09;;;;;;;;;;;19.30;44.20;;;;;;5076163;28;20002;-55
2024/01/14 13:36:37;;;;;;;;;;;19.30;44.20;;;;;;5086930;28;19920;-57
2024/01/14 13:39:04;;;;;;;;;;;19.30;44.20;;;;;;5064987;28;19932;-53
2024/01/14 13:41:31;;;;;;;;;;;19.30;41.90;;;;;;5088995;28;19938;-54
2024/01/14 13:43:58;;;;;;;;;;;19.10;36.70;;;;;;5079095;28;19939;-50
2024/01/14 13:46:25;;;;;;;;;;;19.00;35.70;;;;;;5071304;28;19994;-53
2024/01/14 13:48:52;;;;;;;;;;;18.80;35.00;;;;;;5070843;28;19920;-53
2024/01/14 13:51:19;;;;;;;;;;;18.60;34.90;;;;;;5059453;28;20282;-55
2024/01/14 13:53:48;;;;;;;;;;;18.40;35.20;;;;;;5097021;28;19971;-55
2024/01/14 13:56:15;;;;;;;;;;;18.20;35.50;;;;;;5073098;28;19920;-54
2024/01/14 13:58:43;;;;;;;;;;;18.00;35.80;;;;;;5071786;28;19928;-55
2024/01/14 14:01:11;;;;;;;;;;;17.80;35.40;;;;;;5057586;28;19927;-54
2024/01/14 14:03:41;;;;;;;;;;;17.70;36.00;;;;;;5076344;28;19930;-54
2024/01/14 14:06:09;;;;;;;;;;;17.60;37.20;;;;;;5075601;28;19928;-55
2024/01/14 14:08:36;;;;;;;;;;;17.60;38.10;;;;;;5075827;28;19970;-60
2024/01/14 14:11:04;;;;;;;;;;;17.60;38.70;;;;;;5090714;28;20007;-56
2024/01/14 14:13:31;;;;;;;;;;;17.60;39.00;;;;;;5092635;28;19920;-57
2024/01/14 14:16:00;;;;;;;;;;;17.60;39.30;;;;;;5093488;28;20369;-57